Time;durP1;ratioP1;P1;durP2;ratioP2;P2;SDS_P1;SDS_P2;PMS_P1;PMS_P2;Temp;Humidity;BMP_temperature;BMP_pressure;BME280_temperature;BME280_humidity;BME280_pressure;Samples;Min_cycle;Max_cycle;Signal;HPM_P1;HPM_P2
2023/05/14 00:02:07;;;;;;;6.40;5.13;;;12.70;99.90;;;;;;5102199;28;20518;-88
2023/05/14 00:04:54;;;;;;;8.20;5.20;;;12.70;99.90;;;;;;5092621;28;20430;-88
2023/05/14 00:07:40;;;;;;;6.03;5.03;;;12.70;99.90;;;;;;5089657;28;20451;-89
2023/05/14 00:10:27;;;;;;;7.90;5.67;;;12.60;99.90;;;;;;5097227;28;20974;-89
2023/05/14 00:13:12;;;;;;;5.60;5.10;;;12.60;99.90;;;;;;5094338;28;20493;-89
2023/05/14 00:15:58;;;;;;;6.40;5.77;;;12.60;99.90;;;;;;5091071;28;20577;-90
2023/05/14 00:18:44;;;;;;;9.43;4.90;;;12.60;99.90;;;;;;5100604;28;20805;-89
2023/05/14 00:21:31;;;;;;;6.20;5.60;;;12.50;99.90;;;;;;5096623;28;20504;-89
2023/05/14 00:24:16;;;;;;;8.47;5.40;;;12.30;99.90;;;;;;5095759;28;21111;-89
2023/05/14 00:27:02;;;;;;;6.10;5.50;;;12.20;99.90;;;;;;5088596;28;20513;-89
2023/05/14 00:29:48;;;;;;;8.13;6.30;;;12.10;99.90;;;;;;5092462;28;20478;-89
2023/05/14 00:32:33;;;;;;;6.73;5.47;;;12.10;99.90;;;;;;5095064;28;20512;-89
2023/05/14 00:35:20;;;;;;;11.63;4.87;;;12.10;99.90;;;;;;5086593;28;20802;-89
2023/05/14 00:38:06;;;;;;;6.43;5.83;;;12.20;99.90;;;;;;5091843;28;20439;-89
2023/05/14 00:40:52;;;;;;;6.27;5.67;;;12.20;99.90;;;;;;5086350;28;21085;-88
2023/05/14 00:43:37;;;;;;;6.80;5.73;;;12.00;99.90;;;;;;5091578;28;20410;-89
2023/05/14 00:46:23;;;;;;;6.77;6.07;;;12.00;99.90;;;;;;5084807;28;20501;-89
2023/05/14 00:49:09;;;;;;;10.13;5.67;;;12.00;99.90;;;;;;5091660;28;20480;-89
2023/05/14 00:51:57;;;;;;;6.60;5.97;;;11.90;99.90;;;;;;5099146;28;20445;-89
2023/05/14 00:54:46;;;;;;;6.70;5.43;;;11.90;99.90;;;;;;5087337;28;21050;-88
2023/05/14 00:57:31;;;;;;;13.43;5.70;;;11.90;99.90;;;;;;5094496;28;20904;-87
2023/05/14 01:00:18;;;;;;;5.07;4.57;;;11.90;99.90;;;;;;5088503;28;20463;-89
2023/05/14 01:03:04;;;;;;;5.30;4.70;;;11.70;99.90;;;;;;5089575;28;20533;-89
2023/05/14 01:05:57;;;;;;;5.00;4.50;;;11.70;99.90;;;;;;5090517;28;20984;-89
2023/05/14 01:08:53;;;;;;;6.93;4.60;;;11.70;99.90;;;;;;5091263;28;20552;-89
2023/05/14 01:11:46;;;;;;;5.20;4.70;;;11.60;99.90;;;;;;5099311;28;20769;-89
2023/05/14 01:14:38;;;;;;;5.07;4.53;;;11.60;99.90;;;;;;5089244;28;21451;-89
2023/05/14 01:17:28;;;;;;;5.23;4.70;;;11.50;99.90;;;;;;5084455;28;20437;-89
2023/05/14 01:20:14;;;;;;;6.87;4.80;;;11.50;99.90;;;;;;5076536;28;20453;-89
2023/05/14 01:23:01;;;;;;;6.30;4.90;;;11.40;99.90;;;;;;5089839;28;21043;-89
2023/05/14 01:25:46;;;;;;;5.17;4.43;;;11.50;99.90;;;;;;5087599;28;20408;-89
2023/05/14 01:28:35;;;;;;;6.83;4.70;;;11.50;99.90;;;;;;5095107;28;20590;-89
2023/05/14 01:31:27;;;;;;;5.33;4.77;;;11.60;99.90;;;;;;5089152;28;20461;-90
2023/05/14 01:34:13;;;;;;;5.60;4.67;;;11.60;99.90;;;;;;5089634;28;20478;-89
2023/05/14 01:37:01;;;;;;;5.50;4.53;;;11.60;99.90;;;;;;5091527;28;20426;-89
2023/05/14 01:39:50;;;;;;;5.57;5.07;;;11.60;99.90;;;;;;5069623;28;20497;-89
2023/05/14 01:42:36;;;;;;;5.23;4.40;;;11.50;99.90;;;;;;5092738;28;20560;-90
2023/05/14 01:45:22;;;;;;;4.90;4.13;;;11.40;99.90;;;;;;5081589;28;22543;-90
2023/05/14 01:48:08;;;;;;;5.73;4.67;;;11.20;99.90;;;;;;5089402;28;20933;-88
2023/05/14 01:50:53;;;;;;;5.83;4.90;;;11.30;99.90;;;;;;5088656;28;20445;-89
2023/05/14 01:53:39;;;;;;;10.93;5.40;;;11.30;99.90;;;;;;5094800;28;20950;-89
2023/05/14 01:56:26;;;;;;;7.47;5.20;;;11.30;99.90;;;;;;5087623;28;20445;-89
2023/05/14 01:59:12;;;;;;;6.90;4.67;;;11.20;99.90;;;;;;5095521;28;20446;-90
2023/05/14 02:01:57;;;;;;;5.03;4.50;;;11.20;99.90;;;;;;5088184;28;20521;-88
2023/05/14 02:04:44;;;;;;;6.40;4.97;;;11.20;99.90;;;;;;5084430;28;20447;-88
2023/05/14 02:07:29;;;;;;;7.80;4.77;;;11.20;99.90;;;;;;5084701;28;20585;-89
2023/05/14 02:10:15;;;;;;;7.50;4.40;;;11.10;99.90;;;;;;5095819;28;20466;-88
2023/05/14 02:13:03;;;;;;;8.00;4.87;;;11.00;99.90;;;;;;5094025;28;20432;-88
2023/05/14 02:15:49;;;;;;;12.03;4.60;;;10.90;99.90;;;;;;5092531;28;20492;-89
2023/05/14 02:18:34;;;;;;;5.43;4.70;;;11.00;99.90;;;;;;5089588;28;20422;-89
2023/05/14 02:21:20;;;;;;;8.43;4.53;;;11.00;99.90;;;;;;5086300;28;20427;-89
2023/05/14 02:24:06;;;;;;;6.93;5.30;;;11.10;99.90;;;;;;5083149;28;20840;-89
2023/05/14 02:26:51;;;;;;;5.17;4.67;;;10.90;99.90;;;;;;5084499;28;20447;-89
2023/05/14 02:29:38;;;;;;;5.03;4.47;;;10.90;99.90;;;;;;5087674;28;20490;-88
2023/05/14 02:32:23;;;;;;;4.73;4.27;;;11.00;99.90;;;;;;5089236;28;20493;-88
2023/05/14 02:35:09;;;;;;;6.10;4.70;;;10.90;99.90;;;;;;5084982;28;20450;-89
2023/05/14 02:37:55;;;;;;;9.13;5.00;;;10.70;99.90;;;;;;5094846;28;20476;-90
2023/05/14 02:40:40;;;;;;;11.30;5.27;;;10.60;99.90;;;;;;5085770;28;20441;-89
2023/05/14 02:43:26;;;;;;;4.77;4.27;;;10.60;99.90;;;;;;5090111;28;20517;-89
2023/05/14 02:46:13;;;;;;;5.87;5.20;;;10.60;99.90;;;;;;5092651;28;20414;-89
2023/05/14 02:49:01;;;;;;;5.73;4.90;;;10.50;99.90;;;;;;5090022;28;20455;-89
2023/05/14 02:51:47;;;;;;;4.80;4.30;;;10.50;99.90;;;;;;5092527;28;20530;-89
2023/05/14 02:54:32;;;;;;;6.00;5.00;;;10.50;99.90;;;;;;5084105;28;20822;-89
2023/05/14 02:57:18;;;;;;;6.00;5.17;;;10.40;99.90;;;;;;5092180;28;20458;-88
2023/05/14 03:00:04;;;;;;;5.83;5.17;;;10.50;99.90;;;;;;5094600;28;20510;-89
2023/05/14 03:02:51;;;;;;;7.57;3.90;;;10.60;99.90;;;;;;5083132;28;20433;-89
2023/05/14 03:05:37;;;;;;;5.03;4.40;;;10.50;99.90;;;;;;5080766;28;20794;-87
2023/05/14 03:08:23;;;;;;;10.33;4.80;;;10.40;99.90;;;;;;5088512;28;20476;-89
2023/05/14 03:11:08;;;;;;;4.93;4.27;;;10.50;99.90;;;;;;5103704;28;20512;-89
2023/05/14 03:13:54;;;;;;;4.90;4.30;;;10.40;99.90;;;;;;5088296;28;20547;-90
2023/05/14 03:16:41;;;;;;;6.43;4.70;;;10.40;99.90;;;;;;5087156;28;20418;-89
2023/05/14 03:19:27;;;;;;;5.80;4.87;;;10.30;99.90;;;;;;5085871;28;20969;-89
2023/05/14 03:22:13;;;;;;;7.53;5.30;;;10.20;99.90;;;;;;5088622;28;20520;-89
2023/05/14 03:24:59;;;;;;;6.33;5.50;;;10.30;99.90;;;;;;5088653;28;20476;-89
2023/05/14 03:27:44;;;;;;;6.30;5.43;;;10.30;99.90;;;;;;5085237;28;20421;-89
2023/05/14 03:30:30;;;;;;;6.00;4.67;;;10.30;99.90;;;;;;5092217;28;21035;-89
2023/05/14 03:33:15;;;;;;;5.80;4.83;;;10.30;99.90;;;;;;5083710;28;20493;-89
2023/05/14 03:36:02;;;;;;;6.87;5.30;;;10.20;99.90;;;;;;5079621;28;20471;-89
2023/05/14 03:38:48;;;;;;;11.10;4.83;;;10.20;99.90;;;;;;5090244;28;20920;-90
2023/05/14 03:41:34;;;;;;;11.37;5.13;;;10.10;99.90;;;;;;5085750;28;20426;-89
2023/05/14 03:44:19;;;;;;;5.13;4.67;;;10.10;99.90;;;;;;5082539;28;20561;-89
2023/05/14 03:47:05;;;;;;;6.67;4.83;;;10.10;99.90;;;;;;5088588;28;20941;-89
2023/05/14 03:49:50;;;;;;;6.17;4.80;;;10.10;99.90;;;;;;5082447;28;20552;-88
2023/05/14 03:52:38;;;;;;;15.13;4.63;;;10.20;99.90;;;;;;5087291;28;20410;-89
2023/05/14 03:55:23;;;;;;;5.97;4.63;;;10.30;99.90;;;;;;5097394;28;20572;-88
2023/05/14 03:58:12;;;;;;;6.73;4.90;;;10.10;99.90;;;;;;5098976;28;21035;-89
2023/05/14 04:00:59;;;;;;;5.13;4.63;;;10.20;99.90;;;;;;5093986;28;20929;-88
2023/05/14 04:03:44;;;;;;;5.70;4.30;;;10.20;99.90;;;;;;5089314;28;20429;-89
2023/05/14 04:06:29;;;;;;;5.77;5.00;;;10.20;99.90;;;;;;5092530;28;20439;-89
2023/05/14 04:09:16;;;;;;;5.70;4.03;;;10.00;99.90;;;;;;5098033;28;20533;-90
2023/05/14 04:12:01;;;;;;;10.57;4.00;;;10.00;99.90;;;;;;5082436;28;20467;-88
2023/05/14 04:14:47;;;;;;;4.77;4.37;;;10.00;99.90;;;;;;5093155;28;20975;-88
2023/05/14 04:17:33;;;;;;;5.43;4.30;;;10.00;99.90;;;;;;5087564;28;20493;-89
2023/05/14 04:20:18;;;;;;;4.67;4.20;;;10.00;99.90;;;;;;5092041;28;20443;-89
2023/05/14 04:23:04;;;;;;;5.37;4.80;;;10.10;99.90;;;;;;5080299;28;20561;-89
2023/05/14 04:25:51;;;;;;;7.03;4.90;;;10.10;99.90;;;;;;5091138;28;20420;-90
2023/05/14 04:28:37;;;;;;;9.13;5.07;;;10.10;99.90;;;;;;5089296;28;20474;-89
2023/05/14 04:31:22;;;;;;;7.50;5.10;;;10.10;99.90;;;;;;5091421;28;20443;-89
2023/05/14 04:34:08;;;;;;;7.80;5.37;;;10.10;99.90;;;;;;5085175;28;20474;-87
2023/05/14 04:36:54;;;;;;;5.00;4.50;;;10.10;99.90;;;;;;5093780;28;20495;-89
2023/05/14 04:39:39;;;;;;;5.87;5.13;;;10.20;99.90;;;;;;5104328;28;20533;-89
2023/05/14 04:42:26;;;;;;;8.20;4.77;;;10.20;99.90;;;;;;5084488;28;20469;-89
2023/05/14 04:45:13;;;;;;;8.23;4.60;;;10.30;99.90;;;;;;5096405;28;20444;-89
2023/05/14 04:47:58;;;;;;;6.50;4.80;;;10.40;99.90;;;;;;5097833;28;20564;-89
2023/05/14 04:50:44;;;;;;;5.17;4.67;;;10.50;99.90;;;;;;5085570;28;20605;-88
2023/05/14 04:53:29;;;;;;;6.83;5.27;;;10.50;99.90;;;;;;5100702;28;20444;-89
2023/05/14 04:56:15;;;;;;;5.97;4.60;;;10.60;99.90;;;;;;5087145;28;20458;-89
2023/05/14 04:59:02;;;;;;;6.17;4.90;;;10.60;99.90;;;;;;5077537;28;20589;-89
2023/05/14 05:01:47;;;;;;;7.27;5.63;;;10.70;99.90;;;;;;5085656;28;20929;-89
2023/05/14 05:04:33;;;;;;;6.50;5.60;;;10.80;99.90;;;;;;5086583;28;20592;-89
2023/05/14 05:07:18;;;;;;;8.20;4.87;;;10.90;99.90;;;;;;5097859;28;20450;-89
2023/05/14 05:10:04;;;;;;;5.90;5.30;;;11.00;99.90;;;;;;5093890;28;20513;-89
2023/05/14 05:12:50;;;;;;;5.90;5.30;;;11.00;99.90;;;;;;5088320;28;20498;-89
2023/05/14 05:15:37;;;;;;;5.60;5.07;;;11.00;99.90;;;;;;5087448;28;20441;-89
2023/05/14 05:18:22;;;;;;;7.27;5.63;;;11.00;99.90;;;;;;5090014;28;20562;-89
2023/05/14 05:21:09;;;;;;;6.50;5.90;;;11.10;99.90;;;;;;5086754;28;20436;-89
2023/05/14 05:23:55;;;;;;;6.87;5.77;;;11.40;99.90;;;;;;5093503;28;20459;-89
2023/05/14 05:26:40;;;;;;;7.37;6.60;;;11.50;99.90;;;;;;5087580;28;20433;-89
2023/05/14 05:29:26;;;;;;;7.60;5.90;;;11.70;99.90;;;;;;5088955;28;20495;-90
2023/05/14 05:32:13;;;;;;;7.80;6.20;;;11.70;99.90;;;;;;5088124;28;20945;-90
2023/05/14 05:34:58;;;;;;;8.37;6.10;;;12.00;99.90;;;;;;5089733;28;20578;-88
2023/05/14 05:37:44;;;;;;;7.20;5.87;;;12.10;99.90;;;;;;5090142;28;20443;-90
2023/05/14 05:40:30;;;;;;;10.23;6.23;;;12.30;99.90;;;;;;5084574;28;21095;-89
2023/05/14 05:43:16;;;;;;;5.80;5.20;;;12.50;99.90;;;;;;5086162;28;20439;-89
2023/05/14 05:46:01;;;;;;;6.53;5.90;;;12.60;99.90;;;;;;5082519;28;20412;-89
2023/05/14 05:48:48;;;;;;;7.10;5.90;;;12.70;99.90;;;;;;5092571;28;20558;-90
2023/05/14 05:51:34;;;;;;;6.53;5.83;;;12.80;99.90;;;;;;5085160;28;20784;-90
2023/05/14 05:54:20;;;;;;;5.97;5.40;;;12.90;99.90;;;;;;5087930;28;20425;-90
2023/05/14 05:57:06;;;;;;;8.70;6.33;;;13.00;99.90;;;;;;5090732;28;20509;-90
2023/05/14 05:59:51;;;;;;;10.27;6.83;;;13.10;99.90;;;;;;5088430;28;20470;-89
2023/05/14 06:02:36;;;;;;;8.43;6.00;;;13.20;99.90;;;;;;5090714;28;20467;-89
2023/05/14 06:05:23;;;;;;;6.40;5.63;;;13.20;99.90;;;;;;5085651;28;20481;-89
2023/05/14 06:08:09;;;;;;;6.53;5.80;;;13.30;99.90;;;;;;5088333;28;20455;-89
2023/05/14 06:10:54;;;;;;;12.30;6.30;;;13.30;99.90;;;;;;5086220;28;20433;-89
2023/05/14 06:13:40;;;;;;;9.23;6.70;;;13.50;99.90;;;;;;5086769;28;20413;-89
2023/05/14 06:16:26;;;;;;;6.90;6.20;;;13.60;99.90;;;;;;5096914;28;20441;-91
2023/05/14 06:19:11;;;;;;;8.50;5.97;;;13.70;99.90;;;;;;5091455;28;20509;-90
2023/05/14 06:21:58;;;;;;;7.20;6.03;;;13.80;99.90;;;;;;5087742;28;20420;-90
2023/05/14 06:24:44;;;;;;;11.50;6.27;;;13.90;99.90;;;;;;5089873;28;20437;-90
2023/05/14 06:27:29;;;;;;;8.60;6.40;;;14.00;99.90;;;;;;5094457;28;20452;-89
2023/05/14 06:30:15;;;;;;;7.17;6.13;;;14.10;99.90;;;;;;5084763;28;20434;-90
2023/05/14 06:33:00;;;;;;;8.10;5.93;;;14.20;99.90;;;;;;5087568;28;20907;-89
2023/05/14 06:35:46;;;;;;;6.43;5.63;;;14.20;99.90;;;;;;5082426;28;20567;-90
2023/05/14 06:38:33;;;;;;;6.20;5.40;;;14.20;99.90;;;;;;5084987;28;20749;-89
2023/05/14 06:41:20;;;;;;;6.30;5.17;;;14.30;99.90;;;;;;5089511;28;20789;-89
2023/05/14 06:44:05;;;;;;;8.23;5.67;;;14.20;99.90;;;;;;5090268;28;21026;-90
2023/05/14 06:46:50;;;;;;;7.27;5.10;;;14.20;99.90;;;;;;5089482;28;20421;-88
2023/05/14 06:49:36;;;;;;;7.87;5.60;;;14.20;99.90;;;;;;5085136;28;20473;-90
2023/05/14 06:52:21;;;;;;;7.23;6.10;;;14.20;99.90;;;;;;5092073;28;20787;-89
2023/05/14 06:55:09;;;;;;;7.53;5.47;;;14.20;99.90;;;;;;5085827;28;20497;-90
2023/05/14 06:57:54;;;;;;;6.60;5.60;;;14.20;99.90;;;;;;5085102;28;20972;-90
2023/05/14 07:00:40;;;;;;;7.93;5.80;;;14.10;99.90;;;;;;5085929;28;20999;-89
2023/05/14 07:03:26;;;;;;;9.17;5.90;;;14.10;99.90;;;;;;5086901;28;20457;-89
2023/05/14 07:06:12;;;;;;;6.57;4.73;;;14.20;99.90;;;;;;5087553;28;20425;-89
2023/05/14 07:08:57;;;;;;;8.43;5.53;;;14.20;99.90;;;;;;5085601;28;20513;-89
2023/05/14 07:11:45;;;;;;;8.77;5.53;;;14.20;99.90;;;;;;5084192;28;20460;-88
2023/05/14 07:14:30;;;;;;;8.70;6.10;;;14.30;99.90;;;;;;5087547;28;20442;-90
2023/05/14 07:17:15;;;;;;;6.40;5.13;;;14.30;99.90;;;;;;5097812;28;20454;-90
2023/05/14 07:20:01;;;;;;;14.40;6.60;;;14.40;99.90;;;;;;5080950;28;20472;-90
2023/05/14 07:22:47;;;;;;;9.90;5.50;;;14.50;99.90;;;;;;5085040;28;20554;-89
2023/05/14 07:25:32;;;;;;;7.50;6.23;;;14.70;99.90;;;;;;5090412;28;20497;-87
2023/05/14 07:28:20;;;;;;;5.80;5.17;;;14.70;99.90;;;;;;5088114;28;20569;-88
2023/05/14 07:31:07;;;;;;;6.00;5.40;;;14.90;99.90;;;;;;5093752;28;20948;-88
2023/05/14 07:33:52;;;;;;;7.23;5.40;;;15.00;99.90;;;;;;5097288;28;21256;-90
2023/05/14 07:36:38;;;;;;;7.50;5.73;;;15.30;99.90;;;;;;5096894;28;20909;-89
2023/05/14 07:39:24;;;;;;;8.33;5.93;;;15.40;99.90;;;;;;5087422;28;20441;-89
2023/05/14 07:42:10;;;;;;;10.13;6.03;;;15.50;99.90;;;;;;5092373;28;20448;-90
2023/05/14 07:44:57;;;;;;;6.13;5.43;;;15.50;99.90;;;;;;5093429;28;20463;-88
2023/05/14 07:47:42;;;;;;;6.57;5.40;;;15.60;99.90;;;;;;5094052;28;20481;-89
2023/05/14 07:50:28;;;;;;;6.17;5.57;;;15.70;99.90;;;;;;5089408;28;20990;-89
2023/05/14 07:53:13;;;;;;;7.70;5.57;;;15.70;99.90;;;;;;5101028;28;20508;-88
2023/05/14 07:55:59;;;;;;;6.57;5.50;;;15.80;99.90;;;;;;5083878;28;20443;-89
2023/05/14 07:58:45;;;;;;;7.10;5.43;;;15.90;99.90;;;;;;5091646;28;20436;-90
2023/05/14 08:01:32;;;;;;;7.10;5.20;;;16.00;99.90;;;;;;5093678;28;20551;-90
2023/05/14 08:04:17;;;;;;;6.90;5.50;;;16.00;99.90;;;;;;5104801;22;20471;-72
2023/05/14 08:07:03;;;;;;;6.80;5.43;;;16.20;99.90;;;;;;5046556;28;20443;-72
2023/05/14 08:09:48;;;;;;;6.20;5.37;;;16.20;99.90;;;;;;5045240;28;20459;-72
2023/05/14 08:12:34;;;;;;;8.83;6.20;;;16.30;99.90;;;;;;5051300;28;20466;-72
2023/05/14 08:15:19;;;;;;;12.00;5.23;;;16.30;99.90;;;;;;5045900;28;20469;-72
2023/05/14 08:18:06;;;;;;;7.70;6.00;;;16.30;99.90;;;;;;5050035;28;20616;-72
2023/05/14 08:20:52;;;;;;;5.23;4.73;;;16.40;99.90;;;;;;5045275;28;20441;-72
2023/05/14 08:23:37;;;;;;;6.33;5.73;;;16.40;99.90;;;;;;5057289;22;21224;-88
2023/05/14 08:26:23;;;;;;;6.13;5.10;;;16.50;99.90;;;;;;5044618;28;20975;-87
2023/05/14 08:29:09;;;;;;;6.47;5.80;;;16.50;99.90;;;;;;5048630;28;20452;-87
2023/05/14 08:31:54;;;;;;;7.90;5.53;;;16.50;99.90;;;;;;5047172;28;20984;-88
2023/05/14 08:34:41;;;;;;;6.30;5.60;;;16.50;99.90;;;;;;5054526;28;20519;-87
2023/05/14 08:37:27;;;;;;;7.20;6.10;;;16.60;99.90;;;;;;5045561;28;20425;-89
2023/05/14 08:40:13;;;;;;;6.60;5.90;;;16.80;99.90;;;;;;5046859;28;20503;-89
2023/05/14 08:43:00;;;;;;;6.27;5.67;;;16.80;99.90;;;;;;5055738;28;20420;-88
2023/05/14 08:45:48;;;;;;;6.10;5.20;;;16.80;99.90;;;;;;5058164;28;20574;-89
2023/05/14 08:48:34;;;;;;;5.80;5.20;;;16.90;99.90;;;;;;5051638;28;21060;-90
2023/05/14 08:51:21;;;;;;;6.75;5.40;;;17.00;99.90;;;;;;5057001;28;20439;-88
2023/05/14 08:54:07;;;;;;;6.70;5.27;;;17.00;99.90;;;;;;5046512;28;20221;-87
2023/05/14 08:56:53;;;;;;;7.27;5.20;;;16.90;99.90;;;;;;5050720;28;20424;-89
2023/05/14 08:59:40;;;;;;;7.87;5.00;;;16.80;99.90;;;;;;5048723;28;20475;-88
2023/05/14 09:02:28;;;;;;;6.23;5.60;;;17.00;99.90;;;;;;5046066;28;20495;-89
2023/05/14 09:05:17;;;;;;;7.10;5.63;;;17.00;99.90;;;;;;5045540;28;20457;-89
2023/05/14 09:08:04;;;;;;;5.83;4.67;;;16.90;99.90;;;;;;5046419;28;20440;-89
2023/05/14 09:10:49;;;;;;;5.67;4.90;;;16.90;99.90;;;;;;5041647;28;20453;-88
2023/05/14 09:13:38;;;;;;;5.13;4.63;;;16.90;99.90;;;;;;5046636;28;20452;-89
2023/05/14 09:16:25;;;;;;;7.07;5.90;;;16.90;99.90;;;;;;5057205;28;20447;-89
2023/05/14 09:19:11;;;;;;;7.20;5.80;;;16.90;99.90;;;;;;5043467;28;20566;-88
2023/05/14 09:21:58;;;;;;;5.50;5.00;;;16.90;99.90;;;;;;5045932;28;20438;-88
2023/05/14 09:24:45;;;;;;;6.47;5.13;;;16.90;99.90;;;;;;5049138;28;20850;-89
2023/05/14 09:27:32;;;;;;;6.10;5.13;;;16.90;99.90;;;;;;5043593;28;20413;-87
2023/05/14 09:30:17;;;;;;;6.80;4.57;;;16.90;99.90;;;;;;5048404;28;20450;-87
2023/05/14 09:33:03;;;;;;;5.73;5.13;;;16.80;99.90;;;;;;5043610;28;20547;-86
2023/05/14 09:35:49;;;;;;;7.60;5.60;;;16.80;99.90;;;;;;5043270;28;20477;-87
2023/05/14 09:38:35;;;;;;;6.43;5.20;;;16.90;99.90;;;;;;5042945;28;20517;-87
2023/05/14 09:41:22;;;;;;;7.67;5.23;;;16.90;99.90;;;;;;5055626;28;20542;-88
2023/05/14 09:44:08;;;;;;;6.83;5.63;;;16.90;99.90;;;;;;5045844;28;20898;-86
2023/05/14 09:46:53;;;;;;;5.23;4.73;;;17.00;99.90;;;;;;5044180;28;20425;-88
2023/05/14 09:49:40;;;;;;;6.87;5.13;;;17.00;99.90;;;;;;5051017;28;20413;-88
2023/05/14 09:52:27;;;;;;;5.93;5.30;;;17.10;99.90;;;;;;5042725;28;20915;-89
2023/05/14 09:55:13;;;;;;;6.63;4.57;;;17.10;99.90;;;;;;5048897;28;20920;-88
2023/05/14 09:58:00;;;;;;;6.80;6.10;;;17.10;99.90;;;;;;5038930;28;20550;-88
2023/05/14 10:00:46;;;;;;;5.60;5.00;;;17.10;99.90;;;;;;5045516;28;20597;-89
2023/05/14 10:03:32;;;;;;;5.77;4.90;;;17.20;99.90;;;;;;5050740;28;20545;-88
2023/05/14 10:06:21;;;;;;;5.77;5.00;;;17.30;99.90;;;;;;5043977;28;20458;-89
2023/05/14 10:09:15;;;;;;;5.70;5.07;;;17.20;99.90;;;;;;5042343;28;20480;-87
2023/05/14 10:12:01;;;;;;;5.53;5.00;;;17.30;99.90;;;;;;5044966;28;20540;-89
2023/05/14 10:14:52;;;;;;;6.57;5.37;;;17.30;99.90;;;;;;5056091;28;21098;-88
2023/05/14 10:17:40;;;;;;;6.23;5.30;;;17.40;99.90;;;;;;5040274;28;20503;-88
2023/05/14 10:20:27;;;;;;;5.10;4.60;;;17.40;99.90;;;;;;5046762;28;20442;-88
2023/05/14 10:23:13;;;;;;;7.80;5.73;;;17.40;99.90;;;;;;5053929;28;21073;-88
2023/05/14 10:26:00;;;;;;;5.40;4.90;;;17.40;99.90;;;;;;5054265;28;20412;-88
2023/05/14 10:28:45;;;;;;;7.03;5.50;;;17.30;99.90;;;;;;5052373;28;20426;-88
2023/05/14 10:31:50;;;;;;;4.57;3.93;;;17.40;99.90;;;;;;5047303;28;20417;-88
2023/05/14 10:34:40;;;;;;;8.97;5.97;;;17.40;99.90;;;;;;5039922;28;20467;-88
2023/05/14 10:37:26;;;;;;;8.83;4.90;;;17.40;99.90;;;;;;5045710;28;20425;-89
2023/05/14 10:40:13;;;;;;;5.87;4.73;;;17.40;99.90;;;;;;5051074;28;20432;-89
2023/05/14 10:42:59;;;;;;;5.40;4.90;;;17.30;99.90;;;;;;5048595;28;20438;-88
2023/05/14 10:45:46;;;;;;;8.70;5.43;;;17.30;99.90;;;;;;5045481;28;20475;-89
2023/05/14 10:48:33;;;;;;;7.00;4.97;;;17.30;99.90;;;;;;5046892;28;20446;-89
2023/05/14 10:51:21;;;;;;;6.70;5.27;;;17.30;99.90;;;;;;5051272;28;20466;-88
2023/05/14 10:54:08;;;;;;;5.30;4.70;;;17.20;99.90;;;;;;5049104;28;20477;-88
2023/05/14 10:56:54;;;;;;;6.53;4.97;;;17.20;99.90;;;;;;5043710;28;20822;-88
2023/05/14 10:59:42;;;;;;;5.80;5.20;;;17.20;99.90;;;;;;5038614;28;20422;-87
2023/05/14 11:02:28;;;;;;;5.17;4.43;;;17.20;99.90;;;;;;5055230;28;20818;-89
2023/05/14 11:05:16;;;;;;;5.77;3.90;;;17.10;99.90;;;;;;5052392;28;20438;-89
2023/05/14 11:08:05;;;;;;;7.03;5.00;;;17.10;99.90;;;;;;5045262;28;20429;-88
2023/05/14 11:10:51;;;;;;;6.53;5.17;;;17.10;99.90;;;;;;5044756;28;20882;-88
2023/05/14 11:13:37;;;;;;;5.80;5.07;;;17.00;99.90;;;;;;5051959;28;20424;-87
2023/05/14 11:16:27;;;;;;;6.93;4.30;;;17.00;99.90;;;;;;5041213;28;20437;-88
2023/05/14 11:19:13;;;;;;;5.40;4.70;;;16.90;99.90;;;;;;5055547;28;20537;-87
2023/05/14 11:22:01;;;;;;;11.63;4.00;;;16.90;99.90;;;;;;5053133;28;20436;-88
2023/05/14 11:24:46;;;;;;;6.00;4.90;;;17.00;99.90;;;;;;5047497;28;20470;-89
2023/05/14 11:27:34;;;;;;;6.73;4.97;;;16.90;99.90;;;;;;5049422;28;20439;-88
2023/05/14 11:30:21;;;;;;;5.00;4.43;;;16.90;99.90;;;;;;5046767;28;20416;-89
2023/05/14 11:33:06;;;;;;;5.10;4.57;;;16.90;99.90;;;;;;5042865;28;20972;-88
2023/05/14 11:35:52;;;;;;;5.40;4.53;;;16.90;99.90;;;;;;5048844;28;20519;-88
2023/05/14 11:38:49;;;;;;;4.87;4.37;;;17.00;99.90;;;;;;5055007;28;20445;-90
2023/05/14 11:41:34;;;;;;;5.23;4.43;;;17.00;99.90;;;;;;5050301;28;20445;-88
2023/05/14 11:44:20;;;;;;;5.33;4.43;;;17.00;99.90;;;;;;5049258;28;20453;-88
2023/05/14 11:47:06;;;;;;;6.70;4.70;;;17.00;99.90;;;;;;5042362;28;20529;-89
2023/05/14 11:49:52;;;;;;;6.13;4.73;;;17.00;99.90;;;;;;5052610;28;20441;-86
2023/05/14 11:52:40;;;;;;;6.70;4.60;;;17.00;99.90;;;;;;5055345;28;20445;-89
2023/05/14 11:55:27;;;;;;;4.90;4.17;;;17.00;99.90;;;;;;5051186;28;20544;-88
2023/05/14 11:58:14;;;;;;;6.50;4.30;;;17.00;99.90;;;;;;5050077;28;20433;-88
2023/05/14 12:01:00;;;;;;;5.17;4.40;;;17.00;99.90;;;;;;5048695;28;20953;-89
2023/05/14 12:03:45;;;;;;;7.03;4.33;;;17.00;99.90;;;;;;5050691;28;20451;-88
2023/05/14 12:06:31;;;;;;;6.30;4.10;;;17.00;99.90;;;;;;5049769;28;21011;-89
2023/05/14 12:09:17;;;;;;;5.50;4.47;;;17.10;99.90;;;;;;5057556;28;20433;-89
2023/05/14 12:12:09;;;;;;;5.27;4.53;;;17.10;99.90;;;;;;5043120;28;20420;-88
2023/05/14 12:14:54;;;;;;;4.83;4.30;;;17.20;99.90;;;;;;5046063;28;21049;-89
2023/05/14 12:17:52;;;;;;;5.80;4.40;;;17.20;99.90;;;;;;5047934;28;20593;-87
2023/05/14 12:20:38;;;;;;;7.40;5.23;;;17.30;99.90;;;;;;5052143;28;20424;-88
2023/05/14 12:23:26;;;;;;;5.77;4.73;;;17.40;99.90;;;;;;5048297;28;20451;-90
2023/05/14 12:26:12;;;;;;;6.03;5.43;;;17.50;99.90;;;;;;5045287;28;20475;-87
2023/05/14 12:29:02;;;;;;;5.60;4.97;;;17.50;99.90;;;;;;5045922;28;20449;-89
2023/05/14 12:31:49;;;;;;;15.63;4.90;;;17.70;99.90;;;;;;5048016;28;20431;-89
2023/05/14 12:34:34;;;;;;;5.60;4.60;;;17.70;99.90;;;;;;5043386;28;20975;-88
2023/05/14 12:37:20;;;;;;;5.90;5.30;;;17.80;99.10;;;;;;5049389;28;20428;-88
2023/05/14 12:40:08;;;;;;;4.63;4.10;;;17.80;99.90;;;;;;5043934;28;21056;-89
2023/05/14 12:42:54;;;;;;;6.20;4.30;;;18.00;93.70;;;;;;5044836;28;20446;-89
2023/05/14 12:45:41;;;;;;;8.17;4.03;;;18.20;94.00;;;;;;5048688;28;20621;-88
2023/05/14 12:48:27;;;;;;;5.70;4.40;;;18.30;91.50;;;;;;5050669;28;20412;-89
2023/05/14 12:51:12;;;;;;;4.40;3.70;;;18.40;90.70;;;;;;5047325;28;20990;-88
2023/05/14 12:53:58;;;;;;;6.70;4.10;;;18.50;84.80;;;;;;5044848;28;20448;-89
2023/05/14 12:56:44;;;;;;;6.40;3.83;;;18.60;80.20;;;;;;5043250;28;20434;-89
2023/05/14 12:59:29;;;;;;;4.80;4.30;;;18.70;80.30;;;;;;5042351;28;20451;-89
2023/05/14 13:02:17;;;;;;;5.63;3.30;;;18.80;80.00;;;;;;5047079;28;20493;-90
2023/05/14 13:05:03;;;;;;;6.53;4.20;;;18.80;86.10;;;;;;5043818;28;20478;-89
2023/05/14 13:07:48;;;;;;;4.90;4.10;;;18.90;84.70;;;;;;5048921;28;20435;-89
2023/05/14 13:10:34;;;;;;;5.70;4.67;;;18.80;80.40;;;;;;5044836;28;20427;-88
2023/05/14 13:13:19;;;;;;;5.80;4.10;;;18.90;80.80;;;;;;5047872;28;20447;-88
2023/05/14 13:16:06;;;;;;;5.67;4.80;;;19.10;83.80;;;;;;5040373;28;20459;-88
2023/05/14 13:18:53;;;;;;;4.53;3.70;;;19.50;77.00;;;;;;5046404;28;20452;-87
2023/05/14 13:21:38;;;;;;;3.97;3.57;;;19.70;71.90;;;;;;5051742;28;20439;-88
2023/05/14 13:24:24;;;;;;;4.30;3.80;;;20.00;73.80;;;;;;5043729;28;20467;-88
2023/05/14 13:27:10;;;;;;;5.60;3.10;;;20.40;66.60;;;;;;5048004;28;21089;-88
2023/05/14 13:29:55;;;;;;;6.00;3.60;;;20.70;59.60;;;;;;5048709;28;20443;-88
2023/05/14 13:32:41;;;;;;;3.60;3.30;;;20.80;54.20;;;;;;5048662;28;20595;-88
2023/05/14 13:35:28;;;;;;;3.83;3.00;;;21.00;52.40;;;;;;5046674;28;20461;-88
2023/05/14 13:38:13;;;;;;;4.70;3.60;;;21.30;55.30;;;;;;5046160;28;20464;-89
2023/05/14 13:41:01;;;;;;;3.90;3.50;;;21.50;51.60;;;;;;5047064;28;20444;-88
2023/05/14 13:43:46;;;;;;;4.70;3.50;;;21.70;49.40;;;;;;5042323;28;20522;-86
2023/05/14 13:46:32;;;;;;;4.10;3.40;;;21.90;46.80;;;;;;5045912;28;20471;-88
2023/05/14 13:49:18;;;;;;;4.47;3.20;;;22.10;47.30;;;;;;5046831;28;20527;-88
2023/05/14 13:52:05;;;;;;;5.20;3.30;;;21.90;41.60;;;;;;5042059;28;20431;-90
2023/05/14 13:54:51;;;;;;;3.87;3.10;;;21.70;46.00;;;;;;5043201;28;21166;-87
2023/05/14 13:57:38;;;;;;;4.50;3.10;;;21.70;52.00;;;;;;5047366;28;21273;-89
2023/05/14 14:00:23;;;;;;;4.87;3.83;;;21.70;48.70;;;;;;5047060;28;20432;-87
2023/05/14 14:03:09;;;;;;;4.27;3.03;;;21.80;50.70;;;;;;5037112;28;20440;-89
2023/05/14 14:06:02;;;;;;;4.00;3.43;;;22.10;45.20;;;;;;5044903;28;20590;-90
2023/05/14 14:08:49;;;;;;;3.00;2.60;;;22.30;42.00;;;;;;5045150;28;20487;-89
2023/05/14 14:11:35;;;;;;;5.83;3.10;;;22.50;43.50;;;;;;5047493;28;20952;-90
2023/05/14 14:14:20;;;;;;;3.20;2.90;;;22.60;40.20;;;;;;5044974;28;20546;-91
2023/05/14 14:17:07;;;;;;;5.87;2.60;;;22.50;34.40;;;;;;5042532;28;20428;-89
2023/05/14 14:19:53;;;;;;;5.00;3.00;;;22.40;32.40;;;;;;5043513;28;20440;-90
2023/05/14 14:22:38;;;;;;;4.03;3.43;;;22.40;38.80;;;;;;5047642;28;20498;-90
2023/05/14 14:25:26;;;;;;;4.60;3.60;;;22.40;35.90;;;;;;5050271;28;20766;-90